Elizabethtown, PA

11:55 PM EDT on October 25, 2014 (GMT -0400)
Capital City | Change Station
CLOSE
Current Station
Airport
Location: Harrisburg,
Elevation: 344 ft
Nearby Weather Stations

Elev 344 ft 40.22 °N, 76.86 °W | Updated 59 minutes ago

Partly Cloudy
Partly Cloudy
62 °F
Feels Like 62 °F
N
5
Wind Variable Wind from West

Today
High -- | Low -- °F
--% Chance of Precip.
Yesterday
High -- | Low -- °F
Precip. -- in
7:27 AM 6:12 PM
Waxing Crescent, 5% visible
Pressure 29.64 in
Visibility 10.0 miles
Clouds Scattered Clouds 9000 ft
Dew Point 48 °F
Humidity 60%
Rainfall 0.00 in
Snow Depth Not available.
UV 0 out of 12
Pollen 1.30 out of 12
Ozone Good
PM2.5 Moderate
Flu Activity Sporadic
METAR KCXY 260256Z AUTO 27004KT 10SM SCT090 17/09 A2964 RMK AO2 SLP035 T01670089 56017

More Conditions Fewer Conditions

Pressure 29.64 in
Visibility 10.0 miles
Clouds Scattered Clouds 9000 ft
Dew Point 48 °F
Humidity 60%
Rainfall 0.00 in
Snow Depth Not available.
UV 0 out of 12
Pollen 1.30 out of 12
Ozone Good
PM2.5 Moderate
Flu Activity Sporadic
METAR KCXY 260256Z AUTO 27004KT 10SM SCT090 17/09 A2964 RMK AO2 SLP035 T01670089 56017

More Conditions Fewer Conditions

Nowcast | as of 10:16 PM EDT on October 25, 2014

At 1010 PM...a developing line of showers was from near Benton...southwestward to just north of a Harrisburg... Mount Union...Ebensburg line. Some of the showers were on the heavy side. The showers are moving southeast at 35 mph...and should be south of Pennsylvania...Maryland border by 1 am.

×

10-Day Weather Forecast

Almanac

Astronomy

Oct. 25, 2014 Rise Set
Actual Time 7:27 AM EDT 6:12 PM EDT
Civil Twilight 7:00 AM EDT 6:40 PM EDT
Nautical Twilight 6:28 AM EDT 7:11 PM EDT
Astronomical Twilight 5:56 AM EDT 7:43 PM EDT
Moon 9:04 AM EDT (10/25) 7:33 PM EDT (10/25)
Length of Visible Light 11h 40m
Length of Day
10h 44m
Tomorrow will be 2m 25s shorter.
Waxing Crescent, 5% of the Moon is Illuminated
Today
Waxing Crescent
Oct 30
First Quarter
Nov 6
Full
Nov 14
Last Quarter
Nov 22
New

Today's Extremes

State Highs State Lows

Community

WunderPhotos

Upload Photos

1,765,095 photos uploaded!

Nearby

Air Quality

  Air Quality AQ Index Pollutant
Yesterday Good
PM2.5
Yesterday Good
OZONE
Current Moderate
PM2.5
Current Good
OZONE
Saturday Moderate
PM2.5
Sunday Good
PM2.5
Monday Moderate
PM2.5
Tuesday Moderate
PM2.5

Snow Depth

Station Depth Elevation
No new snow has been reported.

Earthquake Activity

City Distance Mag. Time & Date
No recent earthquake activity has been reported nearby.
Minimum magnitude displayed is 2.5.

Coastal Water Temperatures

Place Temperature
No Stations Reporting

Nearby Weather Stations